sensor_id;sensor_type;location;lat;lon;timestamp;P1;durP1;ratioP1;P2;durP2;ratioP2
19113;SDS011;9689;51.052;13.772;2023-04-24T00:04:10;4.55;;;2.63;;
19113;SDS011;9689;51.052;13.772;2023-04-24T00:09:13;9.57;;;4.00;;
19113;SDS011;9689;51.052;13.772;2023-04-24T00:14:15;5.22;;;3.30;;
19113;SDS011;9689;51.052;13.772;2023-04-24T00:19:17;7.93;;;3.08;;
19113;SDS011;9689;51.052;13.772;2023-04-24T00:24:20;6.13;;;3.25;;
19113;SDS011;9689;51.052;13.772;2023-04-24T00:29:21;4.72;;;3.53;;
19113;SDS011;9689;51.052;13.772;2023-04-24T00:34:23;7.88;;;4.20;;
19113;SDS011;9689;51.052;13.772;2023-04-24T00:39:24;5.70;;;3.78;;
19113;SDS011;9689;51.052;13.772;2023-04-24T00:44:24;5.90;;;3.55;;
19113;SDS011;9689;51.052;13.772;2023-04-24T00:49:28;7.97;;;3.80;;
19113;SDS011;9689;51.052;13.772;2023-04-24T00:54:28;8.60;;;3.58;;
19113;SDS011;9689;51.052;13.772;2023-04-24T00:59:29;7.28;;;3.67;;
19113;SDS011;9689;51.052;13.772;2023-04-24T01:04:32;7.07;;;3.65;;
19113;SDS011;9689;51.052;13.772;2023-04-24T01:09:33;8.20;;;4.10;;
19113;SDS011;9689;51.052;13.772;2023-04-24T01:14:35;4.43;;;3.28;;
19113;SDS011;9689;51.052;13.772;2023-04-24T01:19:38;5.30;;;3.60;;
19113;SDS011;9689;51.052;13.772;2023-04-24T01:24:41;9.77;;;3.85;;
19113;SDS011;9689;51.052;13.772;2023-04-24T01:29:44;7.50;;;3.35;;
19113;SDS011;9689;51.052;13.772;2023-04-24T01:34:45;8.73;;;3.85;;
19113;SDS011;9689;51.052;13.772;2023-04-24T01:39:48;5.85;;;3.63;;
19113;SDS011;9689;51.052;13.772;2023-04-24T01:44:50;7.43;;;3.65;;
19113;SDS011;9689;51.052;13.772;2023-04-24T01:49:51;8.35;;;4.03;;
19113;SDS011;9689;51.052;13.772;2023-04-24T01:54:53;6.35;;;4.05;;
19113;SDS011;9689;51.052;13.772;2023-04-24T01:59:55;8.00;;;3.42;;
19113;SDS011;9689;51.052;13.772;2023-04-24T02:04:55;7.65;;;4.70;;
19113;SDS011;9689;51.052;13.772;2023-04-24T02:09:58;6.03;;;3.72;;
19113;SDS011;9689;51.052;13.772;2023-04-24T02:14:59;6.68;;;3.75;;
19113;SDS011;9689;51.052;13.772;2023-04-24T02:19:59;8.00;;;4.45;;
19113;SDS011;9689;51.052;13.772;2023-04-24T02:25:01;8.88;;;4.20;;
19113;SDS011;9689;51.052;13.772;2023-04-24T02:30:03;8.35;;;3.85;;
19113;SDS011;9689;51.052;13.772;2023-04-24T02:35:04;7.00;;;3.83;;
19113;SDS011;9689;51.052;13.772;2023-04-24T02:40:08;6.38;;;3.65;;
19113;SDS011;9689;51.052;13.772;2023-04-24T02:45:09;7.47;;;4.32;;
19113;SDS011;9689;51.052;13.772;2023-04-24T02:50:11;7.10;;;3.78;;
19113;SDS011;9689;51.052;13.772;2023-04-24T02:55:14;6.95;;;4.38;;
19113;SDS011;9689;51.052;13.772;2023-04-24T03:00:15;6.30;;;4.10;;
19113;SDS011;9689;51.052;13.772;2023-04-24T03:05:16;7.88;;;3.95;;
19113;SDS011;9689;51.052;13.772;2023-04-24T03:10:18;6.43;;;4.13;;
19113;SDS011;9689;51.052;13.772;2023-04-24T03:15:20;8.15;;;4.32;;
19113;SDS011;9689;51.052;13.772;2023-04-24T03:20:21;9.07;;;4.65;;
19113;SDS011;9689;51.052;13.772;2023-04-24T03:25:23;8.60;;;4.68;;
19113;SDS011;9689;51.052;13.772;2023-04-24T03:30:24;9.18;;;4.55;;
19113;SDS011;9689;51.052;13.772;2023-04-24T03:35:30;9.98;;;5.60;;
19113;SDS011;9689;51.052;13.772;2023-04-24T03:40:35;7.00;;;4.35;;
19113;SDS011;9689;51.052;13.772;2023-04-24T03:45:43;7.15;;;4.10;;
19113;SDS011;9689;51.052;13.772;2023-04-24T03:50:45;11.45;;;6.07;;
19113;SDS011;9689;51.052;13.772;2023-04-24T03:55:48;7.35;;;4.30;;
19113;SDS011;9689;51.052;13.772;2023-04-24T04:00:49;7.85;;;4.53;;
19113;SDS011;9689;51.052;13.772;2023-04-24T04:06:16;7.72;;;4.38;;
19113;SDS011;9689;51.052;13.772;2023-04-24T04:11:20;6.43;;;4.28;;
19113;SDS011;9689;51.052;13.772;2023-04-24T04:16:21;5.57;;;3.50;;
19113;SDS011;9689;51.052;13.772;2023-04-24T04:21:26;6.68;;;3.33;;
19113;SDS011;9689;51.052;13.772;2023-04-24T04:26:37;6.15;;;2.20;;
19113;SDS011;9689;51.052;13.772;2023-04-24T04:31:42;6.07;;;1.60;;
19113;SDS011;9689;51.052;13.772;2023-04-24T04:36:45;4.47;;;2.72;;
19113;SDS011;9689;51.052;13.772;2023-04-24T04:42:07;2.92;;;2.03;;
19113;SDS011;9689;51.052;13.772;2023-04-24T04:47:12;3.63;;;1.60;;
19113;SDS011;9689;51.052;13.772;2023-04-24T04:52:14;3.60;;;1.50;;
19113;SDS011;9689;51.052;13.772;2023-04-24T04:57:19;2.45;;;1.55;;
19113;SDS011;9689;51.052;13.772;2023-04-24T05:02:21;6.30;;;1.67;;
19113;SDS011;9689;51.052;13.772;2023-04-24T05:07:22;3.83;;;1.50;;
19113;SDS011;9689;51.052;13.772;2023-04-24T05:12:27;1.35;;;1.00;;
19113;SDS011;9689;51.052;13.772;2023-04-24T05:17:29;3.03;;;1.73;;
19113;SDS011;9689;51.052;13.772;2023-04-24T05:22:31;9.52;;;1.60;;
19113;SDS011;9689;51.052;13.772;2023-04-24T05:27:33;2.47;;;1.10;;
19113;SDS011;9689;51.052;13.772;2023-04-24T05:32:40;1.48;;;1.17;;
19113;SDS011;9689;51.052;13.772;2023-04-24T05:37:40;4.53;;;1.23;;
19113;SDS011;9689;51.052;13.772;2023-04-24T05:42:43;7.45;;;1.38;;
19113;SDS011;9689;51.052;13.772;2023-04-24T05:47:44;4.07;;;1.63;;
19113;SDS011;9689;51.052;13.772;2023-04-24T05:52:45;5.85;;;2.80;;
19113;SDS011;9689;51.052;13.772;2023-04-24T05:58:00;4.28;;;2.08;;
19113;SDS011;9689;51.052;13.772;2023-04-24T06:03:01;5.45;;;1.90;;
19113;SDS011;9689;51.052;13.772;2023-04-24T06:08:04;5.90;;;2.45;;
19113;SDS011;9689;51.052;13.772;2023-04-24T06:13:09;5.85;;;1.42;;
19113;SDS011;9689;51.052;13.772;2023-04-24T06:18:21;5.30;;;2.25;;
19113;SDS011;9689;51.052;13.772;2023-04-24T06:23:22;3.75;;;1.40;;
19113;SDS011;9689;51.052;13.772;2023-04-24T06:28:24;2.15;;;1.13;;
19113;SDS011;9689;51.052;13.772;2023-04-24T06:33:24;3.95;;;1.00;;
19113;SDS011;9689;51.052;13.772;2023-04-24T06:38:25;6.68;;;1.00;;
19113;SDS011;9689;51.052;13.772;2023-04-24T06:43:27;6.53;;;0.90;;
19113;SDS011;9689;51.052;13.772;2023-04-24T06:48:28;3.35;;;0.85;;
19113;SDS011;9689;51.052;13.772;2023-04-24T06:53:29;1.90;;;0.60;;
19113;SDS011;9689;51.052;13.772;2023-04-24T06:58:31;3.38;;;1.08;;
19113;SDS011;9689;51.052;13.772;2023-04-24T07:03:32;7.28;;;2.45;;
19113;SDS011;9689;51.052;13.772;2023-04-24T07:08:33;1.83;;;0.90;;
19113;SDS011;9689;51.052;13.772;2023-04-24T07:13:36;4.57;;;0.80;;
19113;SDS011;9689;51.052;13.772;2023-04-24T07:18:41;1.40;;;0.95;;
19113;SDS011;9689;51.052;13.772;2023-04-24T07:23:41;1.65;;;0.80;;
19113;SDS011;9689;51.052;13.772;2023-04-24T07:28:43;2.65;;;0.90;;
19113;SDS011;9689;51.052;13.772;2023-04-24T07:33:44;1.45;;;0.60;;
19113;SDS011;9689;51.052;13.772;2023-04-24T07:38:45;1.25;;;0.60;;
19113;SDS011;9689;51.052;13.772;2023-04-24T07:43:47;1.92;;;0.80;;
19113;SDS011;9689;51.052;13.772;2023-04-24T07:48:48;1.77;;;0.63;;
19113;SDS011;9689;51.052;13.772;2023-04-24T07:54:03;3.83;;;0.52;;
19113;SDS011;9689;51.052;13.772;2023-04-24T07:59:07;2.40;;;0.70;;
19113;SDS011;9689;51.052;13.772;2023-04-24T08:04:09;1.67;;;0.65;;
19113;SDS011;9689;51.052;13.772;2023-04-24T08:09:10;3.53;;;0.77;;
19113;SDS011;9689;51.052;13.772;2023-04-24T08:14:12;0.90;;;0.35;;
19113;SDS011;9689;51.052;13.772;2023-04-24T08:19:14;8.68;;;1.30;;
19113;SDS011;9689;51.052;13.772;2023-04-24T08:24:14;1.35;;;0.38;;
19113;SDS011;9689;51.052;13.772;2023-04-24T08:29:16;3.53;;;0.88;;
19113;SDS011;9689;51.052;13.772;2023-04-24T08:34:17;2.70;;;0.60;;
19113;SDS011;9689;51.052;13.772;2023-04-24T08:39:18;3.67;;;0.80;;
19113;SDS011;9689;51.052;13.772;2023-04-24T08:44:20;1.27;;;0.60;;
19113;SDS011;9689;51.052;13.772;2023-04-24T08:49:21;1.98;;;0.50;;
19113;SDS011;9689;51.052;13.772;2023-04-24T08:54:24;2.47;;;0.82;;
19113;SDS011;9689;51.052;13.772;2023-04-24T08:59:27;3.58;;;0.88;;
19113;SDS011;9689;51.052;13.772;2023-04-24T09:04:28;2.00;;;1.10;;
19113;SDS011;9689;51.052;13.772;2023-04-24T09:09:30;5.57;;;0.80;;
19113;SDS011;9689;51.052;13.772;2023-04-24T09:14:34;0.85;;;0.55;;
19113;SDS011;9689;51.052;13.772;2023-04-24T09:19:37;2.40;;;0.57;;
19113;SDS011;9689;51.052;13.772;2023-04-24T09:24:38;2.60;;;0.45;;
19113;SDS011;9689;51.052;13.772;2023-04-24T09:29:40;0.77;;;0.40;;
19113;SDS011;9689;51.052;13.772;2023-04-24T09:35:04;2.70;;;1.00;;
19113;SDS011;9689;51.052;13.772;2023-04-24T09:40:11;6.53;;;1.40;;
19113;SDS011;9689;51.052;13.772;2023-04-24T09:45:14;2.45;;;0.55;;
19113;SDS011;9689;51.052;13.772;2023-04-24T09:50:15;2.60;;;0.50;;
19113;SDS011;9689;51.052;13.772;2023-04-24T09:55:19;1.75;;;0.90;;
19113;SDS011;9689;51.052;13.772;2023-04-24T10:00:26;0.77;;;0.40;;
19113;SDS011;9689;51.052;13.772;2023-04-24T10:05:30;12.60;;;0.50;;
19113;SDS011;9689;51.052;13.772;2023-04-24T10:10:32;1.67;;;0.40;;
19113;SDS011;9689;51.052;13.772;2023-04-24T10:15:35;1.25;;;0.60;;
19113;SDS011;9689;51.052;13.772;2023-04-24T10:20:37;3.85;;;0.70;;
19113;SDS011;9689;51.052;13.772;2023-04-24T10:25:39;0.90;;;0.60;;
19113;SDS011;9689;51.052;13.772;2023-04-24T10:30:42;0.60;;;0.35;;
19113;SDS011;9689;51.052;13.772;2023-04-24T10:35:44;1.48;;;0.60;;
19113;SDS011;9689;51.052;13.772;2023-04-24T10:40:48;1.58;;;0.60;;
19113;SDS011;9689;51.052;13.772;2023-04-24T10:51:10;1.45;;;0.52;;
19113;SDS011;9689;51.052;13.772;2023-04-24T10:56:12;2.50;;;0.45;;
19113;SDS011;9689;51.052;13.772;2023-04-24T11:01:24;0.95;;;0.57;;
19113;SDS011;9689;51.052;13.772;2023-04-24T11:06:30;1.00;;;0.90;;
19113;SDS011;9689;51.052;13.772;2023-04-24T11:11:32;0.68;;;0.40;;
19113;SDS011;9689;51.052;13.772;2023-04-24T11:16:36;1.67;;;0.70;;
19113;SDS011;9689;51.052;13.772;2023-04-24T11:21:40;1.48;;;0.43;;
19113;SDS011;9689;51.052;13.772;2023-04-24T11:26:42;0.93;;;0.52;;
19113;SDS011;9689;51.052;13.772;2023-04-24T11:31:46;0.50;;;0.50;;
19113;SDS011;9689;51.052;13.772;2023-04-24T11:36:49;0.75;;;0.60;;
19113;SDS011;9689;51.052;13.772;2023-04-24T11:41:50;2.40;;;0.50;;
19113;SDS011;9689;51.052;13.772;2023-04-24T11:46:52;0.82;;;0.50;;
19113;SDS011;9689;51.052;13.772;2023-04-24T11:51:56;1.63;;;0.32;;
19113;SDS011;9689;51.052;13.772;2023-04-24T11:56:59;1.13;;;0.50;;
19113;SDS011;9689;51.052;13.772;2023-04-24T12:02:06;0.60;;;0.40;;
19113;SDS011;9689;51.052;13.772;2023-04-24T12:07:07;3.35;;;0.70;;
19113;SDS011;9689;51.052;13.772;2023-04-24T12:12:08;1.55;;;0.57;;
19113;SDS011;9689;51.052;13.772;2023-04-24T12:17:12;3.28;;;0.70;;
19113;SDS011;9689;51.052;13.772;2023-04-24T12:22:13;1.83;;;0.57;;
19113;SDS011;9689;51.052;13.772;2023-04-24T12:27:18;1.20;;;0.40;;
19113;SDS011;9689;51.052;13.772;2023-04-24T12:32:21;1.52;;;0.57;;
19113;SDS011;9689;51.052;13.772;2023-04-24T12:37:22;2.17;;;0.50;;
19113;SDS011;9689;51.052;13.772;2023-04-24T12:42:25;1.20;;;0.50;;
19113;SDS011;9689;51.052;13.772;2023-04-24T12:47:28;2.70;;;0.60;;
19113;SDS011;9689;51.052;13.772;2023-04-24T12:52:29;4.60;;;1.08;;
19113;SDS011;9689;51.052;13.772;2023-04-24T12:57:30;6.75;;;0.70;;
19113;SDS011;9689;51.052;13.772;2023-04-24T13:02:33;2.38;;;0.80;;
19113;SDS011;9689;51.052;13.772;2023-04-24T13:07:34;1.25;;;0.65;;
19113;SDS011;9689;51.052;13.772;2023-04-24T13:12:35;2.38;;;1.05;;
19113;SDS011;9689;51.052;13.772;2023-04-24T13:17:37;1.30;;;0.90;;
19113;SDS011;9689;51.052;13.772;2023-04-24T13:22:37;1.02;;;0.60;;
19113;SDS011;9689;51.052;13.772;2023-04-24T13:27:38;2.45;;;0.57;;
19113;SDS011;9689;51.052;13.772;2023-04-24T13:32:40;5.63;;;1.00;;
19113;SDS011;9689;51.052;13.772;2023-04-24T13:37:41;5.72;;;0.93;;
19113;SDS011;9689;51.052;13.772;2023-04-24T13:42:42;3.78;;;0.90;;
19113;SDS011;9689;51.052;13.772;2023-04-24T13:47:44;5.18;;;0.82;;
19113;SDS011;9689;51.052;13.772;2023-04-24T13:52:45;2.15;;;0.68;;
19113;SDS011;9689;51.052;13.772;2023-04-24T13:57:46;3.78;;;0.70;;
19113;SDS011;9689;51.052;13.772;2023-04-24T14:02:48;1.90;;;1.10;;
19113;SDS011;9689;51.052;13.772;2023-04-24T14:07:49;4.18;;;1.00;;
19113;SDS011;9689;51.052;13.772;2023-04-24T14:12:50;1.63;;;0.70;;
19113;SDS011;9689;51.052;13.772;2023-04-24T14:17:53;7.22;;;0.70;;
19113;SDS011;9689;51.052;13.772;2023-04-24T14:22:54;3.50;;;0.82;;
19113;SDS011;9689;51.052;13.772;2023-04-24T14:27:57;3.80;;;1.00;;
19113;SDS011;9689;51.052;13.772;2023-04-24T14:32:59;2.70;;;0.77;;
19113;SDS011;9689;51.052;13.772;2023-04-24T14:38:00;2.72;;;1.00;;
19113;SDS011;9689;51.052;13.772;2023-04-24T14:43:01;1.27;;;0.77;;
19113;SDS011;9689;51.052;13.772;2023-04-24T14:48:03;2.42;;;1.00;;
19113;SDS011;9689;51.052;13.772;2023-04-24T14:53:04;3.80;;;0.90;;
19113;SDS011;9689;51.052;13.772;2023-04-24T14:58:05;2.92;;;1.10;;
19113;SDS011;9689;51.052;13.772;2023-04-24T15:03:07;0.75;;;0.75;;
19113;SDS011;9689;51.052;13.772;2023-04-24T15:08:08;1.80;;;0.90;;
19113;SDS011;9689;51.052;13.772;2023-04-24T15:13:09;2.40;;;0.70;;
19113;SDS011;9689;51.052;13.772;2023-04-24T15:18:11;2.25;;;0.80;;
19113;SDS011;9689;51.052;13.772;2023-04-24T15:23:11;1.00;;;0.60;;
19113;SDS011;9689;51.052;13.772;2023-04-24T15:28:12;4.18;;;0.70;;
19113;SDS011;9689;51.052;13.772;2023-04-24T15:33:16;2.25;;;0.70;;
19113;SDS011;9689;51.052;13.772;2023-04-24T15:38:17;0.90;;;0.68;;
19113;SDS011;9689;51.052;13.772;2023-04-24T15:43:17;3.22;;;0.60;;
19113;SDS011;9689;51.052;13.772;2023-04-24T15:48:19;0.90;;;0.70;;
19113;SDS011;9689;51.052;13.772;2023-04-24T15:53:20;5.28;;;1.20;;
19113;SDS011;9689;51.052;13.772;2023-04-24T15:58:21;1.92;;;1.40;;
19113;SDS011;9689;51.052;13.772;2023-04-24T16:03:23;1.50;;;1.15;;
19113;SDS011;9689;51.052;13.772;2023-04-24T16:08:24;4.43;;;1.00;;
19113;SDS011;9689;51.052;13.772;2023-04-24T16:13:25;5.18;;;1.08;;
19113;SDS011;9689;51.052;13.772;2023-04-24T16:18:28;1.33;;;1.00;;
19113;SDS011;9689;51.052;13.772;2023-04-24T16:23:29;1.13;;;0.70;;
19113;SDS011;9689;51.052;13.772;2023-04-24T16:28:30;1.00;;;0.73;;
19113;SDS011;9689;51.052;13.772;2023-04-24T16:33:32;1.35;;;0.65;;
19113;SDS011;9689;51.052;13.772;2023-04-24T16:38:33;1.10;;;0.68;;
19113;SDS011;9689;51.052;13.772;2023-04-24T16:43:34;1.00;;;0.70;;
19113;SDS011;9689;51.052;13.772;2023-04-24T16:48:36;1.20;;;0.90;;
19113;SDS011;9689;51.052;13.772;2023-04-24T16:53:36;3.13;;;0.90;;
19113;SDS011;9689;51.052;13.772;2023-04-24T16:58:37;0.82;;;0.70;;
19113;SDS011;9689;51.052;13.772;2023-04-24T17:03:39;1.55;;;0.90;;
19113;SDS011;9689;51.052;13.772;2023-04-24T17:08:40;6.15;;;0.90;;
19113;SDS011;9689;51.052;13.772;2023-04-24T17:13:41;2.10;;;0.75;;
19113;SDS011;9689;51.052;13.772;2023-04-24T17:18:43;1.23;;;0.80;;
19113;SDS011;9689;51.052;13.772;2023-04-24T17:23:43;1.33;;;0.70;;
19113;SDS011;9689;51.052;13.772;2023-04-24T17:28:44;1.30;;;0.80;;
19113;SDS011;9689;51.052;13.772;2023-04-24T17:33:47;1.05;;;0.75;;
19113;SDS011;9689;51.052;13.772;2023-04-24T17:38:48;0.73;;;0.57;;
19113;SDS011;9689;51.052;13.772;2023-04-24T17:43:49;0.80;;;0.80;;
19113;SDS011;9689;51.052;13.772;2023-04-24T17:48:51;3.42;;;1.02;;
19113;SDS011;9689;51.052;13.772;2023-04-24T17:53:52;0.65;;;0.63;;
19113;SDS011;9689;51.052;13.772;2023-04-24T17:58:53;1.48;;;0.50;;
19113;SDS011;9689;51.052;13.772;2023-04-24T18:03:55;0.60;;;0.50;;
19113;SDS011;9689;51.052;13.772;2023-04-24T18:08:56;2.60;;;0.50;;
19113;SDS011;9689;51.052;13.772;2023-04-24T18:13:57;5.38;;;0.40;;
19113;SDS011;9689;51.052;13.772;2023-04-24T18:18:59;3.05;;;0.30;;
19113;SDS011;9689;51.052;13.772;2023-04-24T18:24:00;2.55;;;0.68;;
19113;SDS011;9689;51.052;13.772;2023-04-24T18:29:00;0.30;;;0.30;;
19113;SDS011;9689;51.052;13.772;2023-04-24T18:34:02;2.92;;;0.30;;
19113;SDS011;9689;51.052;13.772;2023-04-24T18:39:03;11.85;;;0.45;;
19113;SDS011;9689;51.052;13.772;2023-04-24T18:44:04;1.75;;;0.30;;
19113;SDS011;9689;51.052;13.772;2023-04-24T18:49:06;1.33;;;0.60;;
19113;SDS011;9689;51.052;13.772;2023-04-24T18:54:07;1.83;;;0.80;;
19113;SDS011;9689;51.052;13.772;2023-04-24T18:59:07;1.95;;;0.47;;
19113;SDS011;9689;51.052;13.772;2023-04-24T19:04:09;1.15;;;0.80;;
19113;SDS011;9689;51.052;13.772;2023-04-24T19:09:10;0.43;;;0.43;;
19113;SDS011;9689;51.052;13.772;2023-04-24T19:14:11;0.85;;;0.47;;
19113;SDS011;9689;51.052;13.772;2023-04-24T19:19:14;0.68;;;0.68;;
19113;SDS011;9689;51.052;13.772;2023-04-24T19:24:14;0.70;;;0.63;;
19113;SDS011;9689;51.052;13.772;2023-04-24T19:29:17;0.70;;;0.40;;
19113;SDS011;9689;51.052;13.772;2023-04-24T19:34:19;1.05;;;0.60;;
19113;SDS011;9689;51.052;13.772;2023-04-24T19:39:20;0.60;;;0.57;;
19113;SDS011;9689;51.052;13.772;2023-04-24T19:44:21;1.45;;;1.27;;
19113;SDS011;9689;51.052;13.772;2023-04-24T19:49:23;0.80;;;0.73;;
19113;SDS011;9689;51.052;13.772;2023-04-24T19:54:24;1.45;;;0.90;;
19113;SDS011;9689;51.052;13.772;2023-04-24T19:59:25;1.08;;;0.70;;
19113;SDS011;9689;51.052;13.772;2023-04-24T20:04:27;1.08;;;0.82;;
19113;SDS011;9689;51.052;13.772;2023-04-24T20:09:28;0.90;;;0.80;;
19113;SDS011;9689;51.052;13.772;2023-04-24T20:14:31;0.88;;;0.73;;
19113;SDS011;9689;51.052;13.772;2023-04-24T20:19:33;4.80;;;0.90;;
19113;SDS011;9689;51.052;13.772;2023-04-24T20:24:34;0.98;;;0.90;;
19113;SDS011;9689;51.052;13.772;2023-04-24T20:29:35;0.95;;;0.90;;
19113;SDS011;9689;51.052;13.772;2023-04-24T20:34:37;1.85;;;1.08;;
19113;SDS011;9689;51.052;13.772;2023-04-24T20:39:38;1.30;;;1.10;;
19113;SDS011;9689;51.052;13.772;2023-04-24T20:44:39;1.77;;;1.13;;
19113;SDS011;9689;51.052;13.772;2023-04-24T20:49:41;1.40;;;1.13;;
19113;SDS011;9689;51.052;13.772;2023-04-24T20:54:42;3.00;;;1.60;;
19113;SDS011;9689;51.052;13.772;2023-04-24T20:59:43;4.45;;;1.50;;
19113;SDS011;9689;51.052;13.772;2023-04-24T21:04:45;1.67;;;1.35;;
19113;SDS011;9689;51.052;13.772;2023-04-24T21:09:46;3.78;;;1.80;;
19113;SDS011;9689;51.052;13.772;2023-04-24T21:14:46;2.97;;;1.80;;
19113;SDS011;9689;51.052;13.772;2023-04-24T21:19:50;4.05;;;1.60;;
19113;SDS011;9689;51.052;13.772;2023-04-24T21:24:52;6.95;;;2.30;;
19113;SDS011;9689;51.052;13.772;2023-04-24T21:29:52;3.88;;;1.77;;
19113;SDS011;9689;51.052;13.772;2023-04-24T21:34:55;3.03;;;1.92;;
19113;SDS011;9689;51.052;13.772;2023-04-24T21:39:57;2.28;;;1.75;;
19113;SDS011;9689;51.052;13.772;2023-04-24T21:44:58;4.72;;;2.30;;
19113;SDS011;9689;51.052;13.772;2023-04-24T21:50:00;5.00;;;2.20;;
19113;SDS011;9689;51.052;13.772;2023-04-24T21:55:01;3.97;;;2.00;;
19113;SDS011;9689;51.052;13.772;2023-04-24T22:00:02;6.00;;;2.38;;
19113;SDS011;9689;51.052;13.772;2023-04-24T22:05:06;5.30;;;2.08;;
19113;SDS011;9689;51.052;13.772;2023-04-24T22:10:14;3.10;;;2.15;;
19113;SDS011;9689;51.052;13.772;2023-04-24T22:15:15;6.72;;;2.20;;
19113;SDS011;9689;51.052;13.772;2023-04-24T22:20:17;4.53;;;1.98;;
19113;SDS011;9689;51.052;13.772;2023-04-24T22:25:18;3.65;;;1.73;;
19113;SDS011;9689;51.052;13.772;2023-04-24T22:30:19;3.20;;;2.10;;
19113;SDS011;9689;51.052;13.772;2023-04-24T22:35:21;4.93;;;2.20;;
19113;SDS011;9689;51.052;13.772;2023-04-24T22:40:21;5.25;;;1.98;;
19113;SDS011;9689;51.052;13.772;2023-04-24T22:45:23;2.45;;;1.90;;
19113;SDS011;9689;51.052;13.772;2023-04-24T22:50:26;3.10;;;2.00;;
19113;SDS011;9689;51.052;13.772;2023-04-24T22:55:27;4.65;;;2.17;;
19113;SDS011;9689;51.052;13.772;2023-04-24T23:00:27;4.82;;;2.08;;
19113;SDS011;9689;51.052;13.772;2023-04-24T23:05:30;3.88;;;2.05;;
19113;SDS011;9689;51.052;13.772;2023-04-24T23:10:30;3.15;;;2.05;;
19113;SDS011;9689;51.052;13.772;2023-04-24T23:15:31;3.85;;;2.13;;
19113;SDS011;9689;51.052;13.772;2023-04-24T23:20:34;4.30;;;2.40;;
19113;SDS011;9689;51.052;13.772;2023-04-24T23:25:36;3.65;;;2.42;;
19113;SDS011;9689;51.052;13.772;2023-04-24T23:30:37;4.78;;;2.28;;
19113;SDS011;9689;51.052;13.772;2023-04-24T23:35:39;3.63;;;2.60;;
19113;SDS011;9689;51.052;13.772;2023-04-24T23:40:40;6.28;;;2.65;;
19113;SDS011;9689;51.052;13.772;2023-04-24T23:45:40;4.05;;;2.13;;
19113;SDS011;9689;51.052;13.772;2023-04-24T23:50:42;6.55;;;2.58;;
19113;SDS011;9689;51.052;13.772;2023-04-24T23:55:44;4.53;;;2.50;;
